createdAt,value
2019-02-19T00:00:04.371Z,28.73
2019-02-19T00:02:33.851Z,27.80
2019-02-19T00:05:03.092Z,31.20
2019-02-19T00:07:32.433Z,40.57
2019-02-19T00:10:01.651Z,32.20
2019-02-19T00:12:30.912Z,34.57
2019-02-19T00:15:07.726Z,34.33
2019-02-19T00:17:30.812Z,31.17
2019-02-19T00:20:00.224Z,35.00
2019-02-19T00:22:29.621Z,40.80
2019-02-19T00:24:59.322Z,41.03
2019-02-19T00:27:28.596Z,37.97
2019-02-19T00:29:57.961Z,38.03
2019-02-19T00:32:27.291Z,41.53
2019-02-19T00:34:56.401Z,38.90
2019-02-19T00:37:25.701Z,39.33
2019-02-19T00:39:54.763Z,42.63
2019-02-19T00:42:24.012Z,43.43
2019-02-19T00:44:53.442Z,41.50
2019-02-19T00:47:22.542Z,44.20
2019-02-19T00:49:51.661Z,44.10
2019-02-19T00:52:20.965Z,44.73
2019-02-19T00:54:49.926Z,48.90
2019-02-19T00:57:18.859Z,39.77
2019-02-19T00:59:47.765Z,44.83
2019-02-19T01:02:16.642Z,43.07
2019-02-19T01:04:45.605Z,39.93
2019-02-19T01:07:14.487Z,48.23
2019-02-19T01:09:43.433Z,55.57
2019-02-19T01:12:12.305Z,50.83
2019-02-19T01:14:41.262Z,46.30
2019-02-19T01:17:10.139Z,51.57
2019-02-19T01:19:39.082Z,51.60
2019-02-19T01:22:08.005Z,49.53
2019-02-19T01:24:36.993Z,54.83
2019-02-19T01:27:07.521Z,54.73
2019-02-19T01:29:45.076Z,49.70
2019-02-19T01:32:14.321Z,50.30
2019-02-19T01:34:43.451Z,47.87
2019-02-19T01:37:12.715Z,50.13
2019-02-19T01:39:41.972Z,53.30
2019-02-19T01:42:11.142Z,45.77
2019-02-19T01:44:40.413Z,53.90
2019-02-19T01:47:09.831Z,52.83
2019-02-19T01:49:39.392Z,53.80
2019-02-19T01:52:08.705Z,52.10
2019-02-19T01:54:37.814Z,57.00
2019-02-19T01:57:06.841Z,51.27
2019-02-19T01:59:36.128Z,44.87
2019-02-19T02:02:05.503Z,50.20
2019-02-19T02:04:34.642Z,43.23
2019-02-19T02:07:04.568Z,46.53
2019-02-19T02:09:33.711Z,52.13
2019-02-19T02:12:02.632Z,53.27
2019-02-19T02:14:31.902Z,45.77
2019-02-19T02:17:01.182Z,52.03
2019-02-19T02:19:30.139Z,50.73
2019-02-19T02:21:59.022Z,48.50
2019-02-19T02:24:27.968Z,60.10
2019-02-19T02:26:56.857Z,53.87
2019-02-19T02:29:25.779Z,49.47
2019-02-19T02:31:54.672Z,51.80
2019-02-19T02:34:23.600Z,54.70
2019-02-19T02:36:52.544Z,52.07
2019-02-19T02:39:21.490Z,54.20
2019-02-19T02:41:50.429Z,51.47
2019-02-19T02:44:19.287Z,50.67
2019-02-19T02:46:48.221Z,57.47
2019-02-19T02:49:17.111Z,54.27
2019-02-19T02:51:46.039Z,58.10
2019-02-19T02:54:14.955Z,56.53
2019-02-19T02:56:43.934Z,56.50
2019-02-19T02:59:12.852Z,57.77
2019-02-19T03:01:41.829Z,52.53
2019-02-19T03:04:10.736Z,58.70
2019-02-19T03:06:41.415Z,50.70
2019-02-19T03:09:10.553Z,61.17
2019-02-19T03:11:39.822Z,66.83
2019-02-19T03:14:08.982Z,62.23
2019-02-19T03:16:38.182Z,57.73
2019-02-19T03:19:07.403Z,66.93
2019-02-19T03:21:36.727Z,105.17
2019-02-19T03:24:06.132Z,77.20
2019-02-19T03:26:35.402Z,64.17
2019-02-19T03:29:04.543Z,70.40
2019-02-19T03:31:33.873Z,96.00
2019-02-19T03:34:03.123Z,66.47
2019-02-19T03:36:32.277Z,70.43
2019-02-19T03:39:01.671Z,72.10
2019-02-19T03:41:30.893Z,63.33
2019-02-19T03:44:00.354Z,62.00
2019-02-19T03:46:30.478Z,71.07
2019-02-19T03:48:59.834Z,69.87
2019-02-19T03:51:32.180Z,61.70
2019-02-19T03:54:01.546Z,61.47
2019-02-19T03:56:30.460Z,68.67
2019-02-19T03:58:59.376Z,71.77
2019-02-19T04:01:28.331Z,65.27
2019-02-19T04:03:57.265Z,71.27
2019-02-19T04:06:26.222Z,69.50
2019-02-19T04:08:55.094Z,73.10
2019-02-19T04:11:24.024Z,74.00
2019-02-19T04:13:52.964Z,76.30
2019-02-19T04:16:21.935Z,65.07
2019-02-19T04:18:50.821Z,70.97
2019-02-19T04:21:19.766Z,80.60
2019-02-19T04:23:48.638Z,71.40
2019-02-19T04:26:17.582Z,83.57
2019-02-19T04:28:46.466Z,73.17
2019-02-19T04:31:15.409Z,93.33
2019-02-19T04:33:44.360Z,87.53
2019-02-19T04:36:13.323Z,86.87
2019-02-19T04:38:54.361Z,95.60
2019-02-19T04:41:23.723Z,85.63
2019-02-19T04:43:52.903Z,84.03
2019-02-19T04:46:31.182Z,107.70
2019-02-19T04:48:52.748Z,100.57
2019-02-19T04:51:21.668Z,106.70
2019-02-19T04:53:50.579Z,95.07
2019-02-19T04:56:19.563Z,92.13
2019-02-19T04:58:48.469Z,99.00
2019-02-19T05:01:17.356Z,101.43
2019-02-19T05:03:46.303Z,98.30
2019-02-19T05:06:15.220Z,94.53
2019-02-19T05:08:44.695Z,101.53
2019-02-19T05:11:13.665Z,98.30
2019-02-19T05:13:42.671Z,96.00
2019-02-19T05:16:11.658Z,96.03
2019-02-19T05:18:40.619Z,99.77
2019-02-19T05:21:09.537Z,96.37
2019-02-19T05:23:38.478Z,90.17
2019-02-19T05:26:07.483Z,93.90
2019-02-19T05:28:36.661Z,90.00
2019-02-19T05:31:06.062Z,87.17
2019-02-19T05:33:35.592Z,105.63
2019-02-19T05:36:04.793Z,90.73
2019-02-19T05:38:34.123Z,90.33
2019-02-19T05:41:03.291Z,108.40
2019-02-19T05:43:32.339Z,95.27
2019-02-19T05:46:01.208Z,91.27
2019-02-19T05:48:30.077Z,89.00
2019-02-19T05:50:59.053Z,101.50
2019-02-19T05:53:27.941Z,91.73
2019-02-19T05:55:56.893Z,103.80
2019-02-19T05:58:25.877Z,88.27
2019-02-19T06:00:54.752Z,102.23
2019-02-19T06:03:23.693Z,89.73
2019-02-19T06:05:52.546Z,96.47
2019-02-19T06:08:21.533Z,93.10
2019-02-19T06:10:50.436Z,100.40
2019-02-19T06:13:19.612Z,96.03
2019-02-19T06:15:48.762Z,98.90
2019-02-19T06:18:17.932Z,92.70
2019-02-19T06:20:47.171Z,90.53
2019-02-19T06:23:16.366Z,81.77
2019-02-19T06:25:45.485Z,94.77
2019-02-19T06:28:14.973Z,100.23
2019-02-19T06:30:43.977Z,103.20
2019-02-19T06:33:12.865Z,94.87
2019-02-19T06:35:41.730Z,113.20
2019-02-19T06:38:10.660Z,125.23
2019-02-19T06:40:39.626Z,105.40
2019-02-19T06:43:08.545Z,94.40
2019-02-19T06:45:37.495Z,101.27
2019-02-19T06:48:06.445Z,115.07
2019-02-19T06:50:35.441Z,114.30
2019-02-19T06:53:04.364Z,108.07
2019-02-19T06:55:33.287Z,114.07
2019-02-19T06:58:02.196Z,135.07
2019-02-19T07:00:31.731Z,114.57
2019-02-19T07:03:05.612Z,120.63
2019-02-19T07:05:34.772Z,126.30
2019-02-19T07:08:04.152Z,117.47
2019-02-19T07:10:33.403Z,139.30
2019-02-19T07:13:02.482Z,122.03
2019-02-19T07:15:31.922Z,117.27
2019-02-19T07:18:00.845Z,120.53
2019-02-19T07:20:29.741Z,116.13
2019-02-19T07:22:58.661Z,120.13
2019-02-19T07:25:27.551Z,122.87
2019-02-19T07:27:56.501Z,124.33
2019-02-19T07:30:25.454Z,124.27
2019-02-19T07:32:54.631Z,142.87
2019-02-19T07:35:23.821Z,145.20
2019-02-19T07:37:52.681Z,148.77
2019-02-19T07:40:21.656Z,160.73
2019-02-19T07:42:50.544Z,146.10
2019-02-19T07:45:19.480Z,144.93
2019-02-19T07:47:50.129Z,131.80
2019-02-19T07:50:19.272Z,128.13
2019-02-19T07:52:48.273Z,113.13
2019-02-19T07:55:17.435Z,134.63
2019-02-19T07:57:46.603Z,127.23
2019-02-19T08:00:15.662Z,113.17
2019-02-19T08:02:45.311Z,111.50
2019-02-19T08:05:14.742Z,106.93
2019-02-19T08:07:44.022Z,89.20
2019-02-19T08:10:13.392Z,70.77
2019-02-19T08:12:42.714Z,55.77
2019-02-19T08:15:12.744Z,36.07
2019-02-19T08:17:41.882Z,17.17
2019-02-19T08:20:15.744Z,10.00
2019-02-19T08:22:42.071Z,13.57
2019-02-19T08:25:10.943Z,7.87
2019-02-19T08:27:39.801Z,6.03
2019-02-19T08:30:11.236Z,8.33
2019-02-19T08:32:40.188Z,6.10
2019-02-19T08:35:09.442Z,8.60
2019-02-19T08:37:38.671Z,9.70
2019-02-19T08:40:09.599Z,6.93
2019-02-19T08:42:38.560Z,7.87
2019-02-19T08:45:09.240Z,8.43
2019-02-19T08:47:42.625Z,8.47
2019-02-19T08:50:09.171Z,10.17
2019-02-19T08:52:38.100Z,10.57
2019-02-19T08:55:07.572Z,13.13
2019-02-19T08:57:36.465Z,11.07
2019-02-19T09:00:08.530Z,8.50
2019-02-19T09:02:37.392Z,11.33
2019-02-19T09:05:07.623Z,14.10
2019-02-19T09:07:36.566Z,13.93
2019-02-19T09:10:08.659Z,18.00
2019-02-19T09:12:37.512Z,15.47
2019-02-19T09:15:11.141Z,13.50
2019-02-19T09:17:39.763Z,14.20
2019-02-19T09:20:10.007Z,13.40
2019-02-19T09:22:39.342Z,13.87
2019-02-19T09:25:09.096Z,12.90
2019-02-19T09:27:38.037Z,12.77
2019-02-19T09:30:10.000Z,14.00
2019-02-19T09:32:38.922Z,14.97
2019-02-19T09:35:08.860Z,12.23
2019-02-19T09:37:37.700Z,16.07
2019-02-19T09:40:09.202Z,16.30
2019-02-19T09:42:38.069Z,16.27
2019-02-19T09:45:09.216Z,14.70
2019-02-19T09:47:38.114Z,13.17
2019-02-19T09:50:09.553Z,16.23
2019-02-19T09:52:38.466Z,16.63
2019-02-19T09:55:08.346Z,14.13
2019-02-19T09:57:37.260Z,14.37
2019-02-19T10:00:14.376Z,14.30
2019-02-19T10:02:43.944Z,16.77
2019-02-19T10:05:13.635Z,15.50
2019-02-19T10:07:42.859Z,14.60
2019-02-19T10:10:17.864Z,15.53
2019-02-19T10:12:46.836Z,15.80
2019-02-19T10:15:15.752Z,17.80
2019-02-19T10:17:44.658Z,16.77
2019-02-19T10:20:13.581Z,14.77
2019-02-19T10:22:42.565Z,17.63
2019-02-19T10:25:14.818Z,15.00
2019-02-19T10:27:44.227Z,14.37
2019-02-19T10:30:16.002Z,16.37
2019-02-19T10:32:44.860Z,15.03
2019-02-19T10:35:13.814Z,16.40
2019-02-19T10:37:42.729Z,18.00
2019-02-19T10:40:16.786Z,16.50
2019-02-19T10:42:45.721Z,17.87
2019-02-19T10:45:17.735Z,20.13
2019-02-19T10:47:47.272Z,17.07
2019-02-19T10:50:16.502Z,17.67
2019-02-19T10:52:54.009Z,18.00
2019-02-19T10:55:23.443Z,16.17
2019-02-19T10:57:52.883Z,19.63
2019-02-19T11:00:23.585Z,17.70
2019-02-19T11:02:52.517Z,17.13
2019-02-19T11:05:21.709Z,18.17
2019-02-19T11:07:50.624Z,15.93
2019-02-19T11:10:19.553Z,21.83
2019-02-19T11:12:48.464Z,16.77
2019-02-19T11:15:17.616Z,18.50
2019-02-19T11:17:46.612Z,17.63
2019-02-19T11:20:18.243Z,17.13
2019-02-19T11:22:47.204Z,18.27
2019-02-19T11:25:16.154Z,15.73
2019-02-19T11:27:45.582Z,17.03
2019-02-19T11:30:20.198Z,17.93
2019-02-19T11:32:49.487Z,18.47
2019-02-19T11:35:18.418Z,21.40
2019-02-19T11:37:47.364Z,16.40
2019-02-19T11:40:33.562Z,15.83
2019-02-19T11:43:01.385Z,20.37
2019-02-19T11:45:31.203Z,18.83
2019-02-19T11:48:00.332Z,15.13
2019-02-19T11:53:13.602Z,15.30
2019-02-19T11:55:42.674Z,14.73
2019-02-19T12:00:56.862Z,12.40
2019-02-19T12:03:25.794Z,13.53
2019-02-19T12:05:54.648Z,13.80
2019-02-19T12:08:23.603Z,12.07
2019-02-19T12:10:52.574Z,12.20
2019-02-19T12:13:21.468Z,14.17
2019-02-19T12:15:50.383Z,10.53
2019-02-19T12:18:19.269Z,10.23
2019-02-19T12:20:48.206Z,10.17
2019-02-19T12:23:17.146Z,10.90
2019-02-19T12:25:46.017Z,9.13
2019-02-19T12:28:15.232Z,9.63
2019-02-19T12:30:44.672Z,11.43
2019-02-19T12:33:13.821Z,10.13
2019-02-19T12:35:43.085Z,10.43
2019-02-19T12:38:12.082Z,10.10
2019-02-19T12:40:41.433Z,10.60
2019-02-19T12:43:10.591Z,7.90
2019-02-19T12:45:39.932Z,11.13
2019-02-19T12:48:09.181Z,11.13
2019-02-19T12:50:38.412Z,9.67
2019-02-19T12:53:07.632Z,11.17
2019-02-19T12:55:37.027Z,9.20
2019-02-19T12:58:06.442Z,12.13
2019-02-19T13:00:36.052Z,9.47
2019-02-19T13:03:05.092Z,11.43
2019-02-19T13:05:34.231Z,10.10
2019-02-19T13:08:03.428Z,10.57
2019-02-19T13:10:32.699Z,9.53
2019-02-19T13:13:02.702Z,12.80
2019-02-19T13:15:31.931Z,10.23
2019-02-19T13:18:01.002Z,11.17
2019-02-19T13:20:30.131Z,9.67
2019-02-19T13:22:59.285Z,8.07
2019-02-19T13:25:28.623Z,10.07
2019-02-19T13:27:57.574Z,11.17
2019-02-19T13:30:26.511Z,9.10
2019-02-19T13:32:55.450Z,8.53
2019-02-19T13:35:24.332Z,10.93
2019-02-19T13:37:53.244Z,10.37
2019-02-19T13:40:22.125Z,8.30
2019-02-19T13:42:51.057Z,12.10
2019-02-19T13:45:20.015Z,12.03
2019-02-19T13:47:48.971Z,10.57
2019-02-19T13:50:29.172Z,12.20
2019-02-19T13:53:14.791Z,12.70
2019-02-19T13:55:45.294Z,12.77
2019-02-19T13:58:14.218Z,12.70
2019-02-19T14:00:44.972Z,15.47
2019-02-19T14:03:14.183Z,14.83
2019-02-19T14:05:43.539Z,16.37
2019-02-19T14:08:14.846Z,15.50
2019-02-19T14:10:43.791Z,16.00
2019-02-19T14:13:12.972Z,14.80
2019-02-19T14:15:43.563Z,15.90
2019-02-19T14:18:14.109Z,14.03
2019-02-19T14:21:02.501Z,18.00
2019-02-19T14:23:41.790Z,15.67
2019-02-19T14:26:28.644Z,15.53
2019-02-19T14:29:02.112Z,17.03
2019-02-19T14:31:48.798Z,16.10
2019-02-19T14:34:35.392Z,15.27
2019-02-19T14:37:13.007Z,17.23
2019-02-19T14:39:59.809Z,16.97
2019-02-19T14:42:38.771Z,16.70
2019-02-19T14:45:17.953Z,15.50
2019-02-19T14:48:25.340Z,17.70
2019-02-19T14:51:00.786Z,16.70
2019-02-19T14:53:49.176Z,17.13
2019-02-19T14:56:35.870Z,18.30
2019-02-19T14:59:22.648Z,17.37
2019-02-19T15:02:01.964Z,16.50
2019-02-19T15:04:35.466Z,17.27
2019-02-19T15:07:23.842Z,15.63
2019-02-19T15:09:57.014Z,15.50
2019-02-19T15:12:44.992Z,15.73
2019-02-19T15:15:30.436Z,16.60
2019-02-19T15:18:10.028Z,13.27
2019-02-19T15:20:43.553Z,14.93
2019-02-19T15:23:28.861Z,13.40
2019-02-19T15:26:11.241Z,13.83
2019-02-19T15:28:57.792Z,16.63
2019-02-19T15:31:37.378Z,15.43
2019-02-19T15:34:30.608Z,14.83
2019-02-19T15:37:04.202Z,16.90
2019-02-19T15:39:46.972Z,14.10
2019-02-19T15:42:24.432Z,18.83
2019-02-19T15:44:55.251Z,13.40
2019-02-19T15:47:40.544Z,14.93
2019-02-19T15:50:23.004Z,14.10
2019-02-19T15:52:53.492Z,12.50
2019-02-19T15:55:40.550Z,16.13
2019-02-19T15:58:11.158Z,17.77
2019-02-19T16:00:47.187Z,17.77
2019-02-19T16:03:20.555Z,17.37
2019-02-19T16:05:53.814Z,16.20
2019-02-19T16:08:27.188Z,14.97
2019-02-19T16:11:03.528Z,15.50
2019-02-19T16:13:36.830Z,17.70
2019-02-19T16:16:07.313Z,16.17
2019-02-19T16:18:55.382Z,12.80
2019-02-19T16:21:26.595Z,16.87
2019-02-19T16:24:00.653Z,14.23
2019-02-19T16:26:32.264Z,17.27
2019-02-19T16:29:03.309Z,13.63
2019-02-19T16:31:34.247Z,15.13
2019-02-19T16:34:05.164Z,15.77
2019-02-19T16:36:39.126Z,10.60
2019-02-19T16:39:14.168Z,16.00
2019-02-19T16:42:03.046Z,15.87
2019-02-19T16:44:36.286Z,17.33
2019-02-19T16:47:24.853Z,14.30
2019-02-19T16:50:07.733Z,13.40
2019-02-19T16:52:52.371Z,14.80
2019-02-19T16:55:22.865Z,14.93
2019-02-19T16:57:56.137Z,16.60
2019-02-19T17:00:29.409Z,15.60
2019-02-19T17:03:02.464Z,13.20
2019-02-19T17:05:32.930Z,13.93
2019-02-19T17:08:20.133Z,16.27
2019-02-19T17:10:50.701Z,15.27
2019-02-19T17:13:29.983Z,15.83
2019-02-19T17:16:00.398Z,16.63
2019-02-19T17:18:30.883Z,16.17
2019-02-19T17:21:03.894Z,12.90
2019-02-19T17:23:34.389Z,18.30
2019-02-19T17:26:04.886Z,17.40
2019-02-19T17:28:41.152Z,13.47
2019-02-19T17:31:26.822Z,15.23
2019-02-19T17:34:06.444Z,15.87
2019-02-19T17:36:39.511Z,17.20
2019-02-19T17:39:12.899Z,14.80
2019-02-19T17:41:43.413Z,18.93
2019-02-19T17:44:13.848Z,15.10
2019-02-19T17:47:00.462Z,15.40
2019-02-19T17:49:33.987Z,18.73
2019-02-19T17:52:04.528Z,16.13
2019-02-19T17:54:34.948Z,12.03
2019-02-19T17:57:05.692Z,17.97
2019-02-19T17:59:45.302Z,15.20
2019-02-19T18:02:16.162Z,17.53
2019-02-19T18:04:49.452Z,15.43
2019-02-19T18:07:34.500Z,13.87
2019-02-19T18:10:14.094Z,16.13
2019-02-19T18:12:46.016Z,13.97
2019-02-19T18:15:28.155Z,15.80
2019-02-19T18:18:14.968Z,15.30
2019-02-19T18:20:47.644Z,20.87
2019-02-19T18:23:14.499Z,19.27
2019-02-19T18:25:43.439Z,17.63
2019-02-19T18:28:12.455Z,14.97
2019-02-19T18:30:41.451Z,15.33
2019-02-19T18:33:10.395Z,13.43
2019-02-19T18:35:39.364Z,12.53
2019-02-19T18:38:08.482Z,16.33
2019-02-19T18:40:37.453Z,14.90
2019-02-19T18:43:24.210Z,14.67
2019-02-19T18:45:53.465Z,15.73
2019-02-19T18:48:22.792Z,13.17
2019-02-19T18:50:58.115Z,14.00
2019-02-19T18:53:23.134Z,13.97
2019-02-19T18:55:51.994Z,13.03
2019-02-19T18:58:20.950Z,16.17
2019-02-19T19:00:49.998Z,10.87
2019-02-19T19:03:18.837Z,14.17
2019-02-19T19:05:47.781Z,17.07
2019-02-19T19:08:16.759Z,14.27
2019-02-19T19:10:45.869Z,14.27
2019-02-19T19:13:14.761Z,13.73
2019-02-19T19:15:43.908Z,17.67
2019-02-19T19:18:12.988Z,17.53
2019-02-19T19:20:42.701Z,19.43
2019-02-19T19:23:11.628Z,17.73
2019-02-19T19:25:40.779Z,17.20
2019-02-19T19:28:09.872Z,13.83
2019-02-19T19:30:39.293Z,12.47
2019-02-19T19:33:08.722Z,16.00
2019-02-19T19:35:38.301Z,18.23
2019-02-19T19:38:07.801Z,13.77
2019-02-19T19:40:37.242Z,12.30
2019-02-19T19:43:07.022Z,20.23
2019-02-19T19:45:36.552Z,22.43
2019-02-19T19:48:06.202Z,17.23
2019-02-19T19:50:35.642Z,29.37
2019-02-19T19:53:05.583Z,18.13
2019-02-19T19:55:35.303Z,24.80
2019-02-19T19:58:04.875Z,20.17
2019-02-19T20:00:34.382Z,17.03
2019-02-19T20:03:03.952Z,17.13
2019-02-19T20:05:33.663Z,20.37
2019-02-19T20:08:03.762Z,24.07
2019-02-19T20:10:33.211Z,13.17
2019-02-19T20:13:02.702Z,15.50
2019-02-19T20:15:33.872Z,16.50
2019-02-19T20:18:04.031Z,14.67
2019-02-19T20:20:34.912Z,17.57
2019-02-19T20:23:04.654Z,14.67
2019-02-19T20:25:34.172Z,12.87
2019-02-19T20:28:03.702Z,14.83
2019-02-19T20:30:33.272Z,11.20
2019-02-19T20:33:04.082Z,11.70
2019-02-19T20:35:33.962Z,16.57
2019-02-19T20:38:04.092Z,10.13
2019-02-19T20:40:33.592Z,13.90
2019-02-19T20:43:03.053Z,13.40
2019-02-19T20:45:32.592Z,15.33
2019-02-19T20:48:03.783Z,16.30
2019-02-19T20:50:33.223Z,15.17
2019-02-19T20:53:02.754Z,16.50
2019-02-19T20:55:36.942Z,13.80
2019-02-19T20:58:03.285Z,11.17
2019-02-19T21:00:32.762Z,14.10
2019-02-19T21:03:13.396Z,12.83
2019-02-19T21:05:42.335Z,14.83
2019-02-19T21:08:11.365Z,12.53
2019-02-19T21:10:40.406Z,13.30
2019-02-19T21:13:09.340Z,14.77
2019-02-19T21:15:38.312Z,14.27
2019-02-19T21:18:07.308Z,13.17
2019-02-19T21:20:36.334Z,13.83
2019-02-19T21:23:05.491Z,14.60
2019-02-19T21:25:34.454Z,15.30
2019-02-19T21:28:03.450Z,18.93
2019-02-19T21:30:32.559Z,15.67
2019-02-19T21:33:01.556Z,16.73
2019-02-19T21:35:30.586Z,18.07
2019-02-19T21:37:59.590Z,21.97
2019-02-19T21:40:28.541Z,15.27
2019-02-19T21:42:57.632Z,18.17
2019-02-19T21:45:26.549Z,16.23
2019-02-19T21:47:55.513Z,13.93
2019-02-19T21:50:24.499Z,18.13
2019-02-19T21:53:05.305Z,15.17
2019-02-19T21:55:34.912Z,15.53
2019-02-19T21:58:04.731Z,15.47
2019-02-19T22:00:34.111Z,27.17
2019-02-19T22:03:03.292Z,12.17
2019-02-19T22:05:32.331Z,13.80
2019-02-19T22:08:02.031Z,14.97
2019-02-19T22:10:31.211Z,14.07
2019-02-19T22:13:00.591Z,10.70
2019-02-19T22:15:29.872Z,12.83
2019-02-19T22:17:58.972Z,15.00
2019-02-19T22:20:29.921Z,17.90
2019-02-19T22:22:59.102Z,14.10
2019-02-19T22:25:28.482Z,12.20
2019-02-19T22:27:57.562Z,13.23
2019-02-19T22:30:26.762Z,13.43
2019-02-19T22:32:55.932Z,16.00
2019-02-19T22:35:24.771Z,12.67
2019-02-19T22:37:53.763Z,10.73
2019-02-19T22:40:22.811Z,14.50
2019-02-19T22:42:52.084Z,14.77
2019-02-19T22:45:21.644Z,13.40
2019-02-19T22:47:53.330Z,12.80
2019-02-19T22:50:22.261Z,15.10
2019-02-19T22:52:51.382Z,15.03
2019-02-19T22:55:27.702Z,11.00
2019-02-19T22:57:56.972Z,14.33
2019-02-19T23:00:50.214Z,11.53
2019-02-19T23:03:23.692Z,11.73
2019-02-19T23:05:52.962Z,14.83
2019-02-19T23:08:22.101Z,12.43
2019-02-19T23:10:51.022Z,20.60
2019-02-19T23:13:19.992Z,12.53
2019-02-19T23:15:48.860Z,15.33
2019-02-19T23:18:17.818Z,23.67
2019-02-19T23:20:46.694Z,14.87
2019-02-19T23:23:15.627Z,14.20
2019-02-19T23:25:50.932Z,14.83
2019-02-19T23:28:20.397Z,15.13
2019-02-19T23:30:49.932Z,14.87
2019-02-19T23:33:19.155Z,17.93
2019-02-19T23:35:55.502Z,15.83
2019-02-19T23:38:24.711Z,18.93
2019-02-19T23:40:53.952Z,18.53
2019-02-19T23:43:22.982Z,19.53
2019-02-19T23:45:52.412Z,20.97
2019-02-19T23:48:21.771Z,19.60
2019-02-19T23:50:51.772Z,17.70
2019-02-19T23:53:20.973Z,15.97
2019-02-19T23:55:50.282Z,19.10
2019-02-19T23:58:19.472Z,16.60
